createdAt,value
2018-03-06T00:00:03.362Z,10.02
2018-03-06T00:02:34.533Z,8.70
2018-03-06T00:05:01.172Z,9.00
2018-03-06T00:07:28.712Z,10.10
2018-03-06T00:09:55.450Z,8.25
2018-03-06T00:12:22.102Z,10.63
2018-03-06T00:14:48.741Z,10.13
2018-03-06T00:17:16.243Z,10.02
2018-03-06T00:19:42.937Z,9.32
2018-03-06T00:22:10.308Z,10.45
2018-03-06T00:24:38.719Z,8.45
2018-03-06T00:27:06.224Z,9.70
2018-03-06T00:29:33.883Z,9.70
2018-03-06T00:32:00.563Z,10.68
2018-03-06T00:34:27.893Z,9.98
2018-03-06T00:36:54.606Z,9.50
2018-03-06T00:39:21.252Z,10.70
2018-03-06T00:41:49.671Z,10.05
2018-03-06T00:44:18.153Z,10.88
2018-03-06T00:46:44.952Z,9.60
2018-03-06T00:49:11.805Z,9.32
2018-03-06T00:51:38.547Z,10.75
2018-03-06T00:54:05.227Z,10.55
2018-03-06T00:56:36.449Z,11.02
2018-03-06T00:59:03.204Z,9.88
2018-03-06T01:01:29.965Z,11.65
2018-03-06T01:03:56.695Z,11.05
2018-03-06T01:06:23.896Z,11.93
2018-03-06T01:08:52.362Z,11.00
2018-03-06T01:11:19.246Z,11.98
2018-03-06T01:13:51.992Z,11.75
2018-03-06T01:16:19.821Z,10.23
2018-03-06T01:18:46.987Z,11.45
2018-03-06T01:21:15.098Z,11.63
2018-03-06T01:23:41.988Z,11.82
2018-03-06T01:26:09.213Z,12.45
2018-03-06T01:28:37.148Z,11.10
2018-03-06T01:31:04.486Z,11.60
2018-03-06T01:33:31.716Z,12.43
2018-03-06T01:35:59.575Z,12.20
2018-03-06T01:38:26.305Z,12.23
2018-03-06T01:40:52.940Z,12.55
2018-03-06T01:43:19.832Z,11.65
2018-03-06T01:45:46.518Z,12.65
2018-03-06T01:48:14.985Z,12.93
2018-03-06T01:50:43.700Z,13.13
2018-03-06T01:53:12.908Z,12.00
2018-03-06T01:55:39.613Z,12.55
2018-03-06T01:58:08.050Z,12.15
2018-03-06T02:00:35.808Z,12.23
2018-03-06T02:03:02.481Z,11.73
2018-03-06T02:05:30.239Z,12.27
2018-03-06T02:07:57.165Z,11.93
2018-03-06T02:10:23.910Z,13.13
2018-03-06T02:12:59.024Z,13.65
2018-03-06T02:15:25.842Z,12.45
2018-03-06T02:17:52.630Z,12.43
2018-03-06T02:20:20.168Z,12.45
2018-03-06T02:22:53.825Z,11.93
2018-03-06T02:25:21.545Z,13.13
2018-03-06T02:27:57.004Z,12.55
2018-03-06T02:30:28.433Z,12.68
2018-03-06T02:32:55.111Z,12.20
2018-03-06T02:35:23.351Z,12.25
2018-03-06T02:37:50.131Z,11.07
2018-03-06T02:40:17.667Z,11.68
2018-03-06T02:42:44.360Z,11.27
2018-03-06T02:45:17.284Z,12.77
2018-03-06T02:47:43.935Z,11.68
2018-03-06T02:50:10.705Z,11.18
2018-03-06T02:52:41.167Z,12.48
2018-03-06T02:55:12.092Z,12.25
2018-03-06T02:57:39.033Z,11.73
2018-03-06T03:00:05.693Z,13.25
2018-03-06T03:02:36.548Z,11.10
2018-03-06T03:05:03.319Z,12.30
2018-03-06T03:07:34.593Z,11.70
2018-03-06T03:10:02.773Z,12.15
2018-03-06T03:12:34.839Z,12.98
2018-03-06T03:15:01.568Z,12.68
2018-03-06T03:17:28.257Z,13.07
2018-03-06T03:19:54.910Z,12.60
2018-03-06T03:22:22.460Z,12.50
2018-03-06T03:24:49.208Z,12.20
2018-03-06T03:27:15.912Z,13.10
2018-03-06T03:29:44.220Z,12.32
2018-03-06T03:32:16.523Z,12.82
2018-03-06T03:34:46.667Z,12.48
2018-03-06T03:37:13.464Z,13.02
2018-03-06T03:39:41.159Z,13.13
2018-03-06T03:42:08.354Z,13.00
2018-03-06T03:44:35.099Z,13.90
2018-03-06T03:47:02.869Z,13.60
2018-03-06T03:49:30.487Z,13.65
2018-03-06T03:52:02.036Z,12.55
2018-03-06T03:54:28.956Z,13.48
2018-03-06T03:56:55.783Z,12.88
2018-03-06T03:59:22.501Z,12.30
2018-03-06T04:01:49.211Z,15.23
2018-03-06T04:04:15.979Z,14.25
2018-03-06T04:06:45.720Z,11.93
2018-03-06T04:09:12.946Z,14.45
2018-03-06T04:11:40.146Z,13.07
2018-03-06T04:14:10.835Z,14.50
2018-03-06T04:16:37.502Z,15.10
2018-03-06T04:19:04.212Z,14.30
2018-03-06T04:21:34.995Z,14.23
2018-03-06T04:24:02.343Z,15.38
2018-03-06T04:26:29.689Z,14.65
2018-03-06T04:29:00.963Z,14.73
2018-03-06T04:31:28.336Z,15.27
2018-03-06T04:33:55.032Z,14.00
2018-03-06T04:36:21.668Z,16.02
2018-03-06T04:38:49.075Z,15.68
2018-03-06T04:41:16.381Z,14.87
2018-03-06T04:43:45.854Z,15.60
2018-03-06T04:46:17.933Z,13.82
2018-03-06T04:48:48.849Z,14.52
2018-03-06T04:51:23.319Z,14.18
2018-03-06T04:53:52.054Z,16.65
2018-03-06T04:56:26.788Z,15.68
2018-03-06T04:58:59.563Z,16.77
2018-03-06T05:01:26.315Z,14.55
2018-03-06T05:03:57.096Z,15.27
2018-03-06T05:06:33.524Z,15.32
2018-03-06T05:09:00.311Z,16.00
2018-03-06T05:11:39.423Z,15.27
2018-03-06T05:14:07.929Z,14.73
2018-03-06T05:16:35.610Z,15.73
2018-03-06T05:19:04.206Z,17.73
2018-03-06T05:21:31.792Z,17.40
2018-03-06T05:24:06.676Z,17.83
2018-03-06T05:26:38.357Z,15.60
2018-03-06T05:29:10.676Z,15.63
2018-03-06T05:31:38.127Z,16.50
2018-03-06T05:34:05.447Z,16.83
2018-03-06T05:36:37.256Z,17.00
2018-03-06T05:39:08.904Z,16.95
2018-03-06T05:41:35.582Z,16.50
2018-03-06T05:44:02.819Z,17.08
2018-03-06T05:46:36.426Z,15.63
2018-03-06T05:49:04.427Z,16.10
2018-03-06T05:51:31.898Z,17.37
2018-03-06T05:53:58.767Z,18.83
2018-03-06T05:56:25.515Z,18.25
2018-03-06T05:58:53.162Z,18.58
2018-03-06T06:01:25.709Z,17.42
2018-03-06T06:03:53.000Z,18.58
2018-03-06T06:06:20.935Z,18.05
2018-03-06T06:08:56.719Z,17.45
2018-03-06T06:11:24.058Z,17.95
2018-03-06T06:13:55.209Z,18.17
2018-03-06T06:16:33.717Z,17.87
2018-03-06T06:19:11.497Z,19.30
2018-03-06T06:21:38.912Z,21.80
2018-03-06T06:24:09.241Z,18.25
2018-03-06T06:26:39.830Z,17.08
2018-03-06T06:29:06.615Z,18.67
2018-03-06T06:31:33.941Z,18.02
2018-03-06T06:34:02.768Z,18.65
2018-03-06T06:36:29.480Z,19.77
2018-03-06T06:38:56.195Z,18.70
2018-03-06T06:41:22.902Z,19.60
2018-03-06T06:43:49.639Z,18.83
2018-03-06T06:46:16.457Z,17.98
2018-03-06T06:48:43.827Z,16.87
2018-03-06T06:51:11.325Z,17.85
2018-03-06T06:53:38.943Z,17.50
2018-03-06T06:56:05.593Z,16.65
2018-03-06T06:58:32.222Z,18.33
2018-03-06T07:00:58.849Z,19.70
2018-03-06T07:03:25.461Z,19.85
2018-03-06T07:05:52.095Z,21.10
2018-03-06T07:08:18.727Z,17.00
2018-03-06T07:10:45.343Z,17.85
2018-03-06T07:13:12.022Z,18.85
2018-03-06T07:15:38.654Z,17.73
2018-03-06T07:18:05.305Z,16.90
2018-03-06T07:20:31.933Z,18.70
2018-03-06T07:22:58.657Z,16.37
2018-03-06T07:25:25.296Z,17.83
2018-03-06T07:27:51.915Z,17.90
2018-03-06T07:30:18.553Z,18.67
2018-03-06T07:32:45.927Z,17.05
2018-03-06T07:35:12.600Z,18.35
2018-03-06T07:37:39.211Z,16.58
2018-03-06T07:40:05.862Z,17.37
2018-03-06T07:42:32.481Z,19.80
2018-03-06T07:44:59.128Z,17.75
2018-03-06T07:47:25.791Z,18.80
2018-03-06T07:49:52.492Z,18.75
2018-03-06T07:52:19.740Z,19.58
2018-03-06T07:54:46.400Z,18.80
2018-03-06T07:57:13.028Z,18.20
2018-03-06T07:59:39.665Z,19.60
2018-03-06T08:02:06.303Z,18.35
2018-03-06T08:04:32.924Z,21.55
2018-03-06T08:06:59.577Z,19.48
2018-03-06T08:09:26.213Z,21.62
2018-03-06T08:11:52.854Z,18.85
2018-03-06T08:14:20.132Z,20.55
2018-03-06T08:16:46.764Z,19.65
2018-03-06T08:19:13.437Z,20.58
2018-03-06T08:21:40.116Z,21.00
2018-03-06T08:24:06.779Z,21.27
2018-03-06T08:26:33.472Z,20.95
2018-03-06T08:29:00.090Z,20.90
2018-03-06T08:31:26.838Z,22.70
2018-03-06T08:33:53.490Z,20.40
2018-03-06T08:36:20.161Z,22.67
2018-03-06T08:38:46.823Z,21.12
2018-03-06T08:41:13.440Z,21.98
2018-03-06T08:43:40.107Z,22.67
2018-03-06T08:46:06.825Z,23.65
2018-03-06T08:48:33.523Z,22.48
2018-03-06T08:51:00.142Z,20.80
2018-03-06T08:53:26.790Z,22.85
2018-03-06T08:55:53.422Z,20.02
2018-03-06T08:58:20.049Z,21.40
2018-03-06T09:00:46.691Z,21.70
2018-03-06T09:03:13.336Z,22.50
2018-03-06T09:05:39.990Z,23.40
2018-03-06T09:08:06.629Z,24.63
2018-03-06T09:10:33.271Z,22.48
2018-03-06T09:12:59.892Z,21.42
2018-03-06T09:15:26.544Z,21.52
2018-03-06T09:17:53.169Z,22.73
2018-03-06T09:20:19.828Z,23.90
2018-03-06T09:22:47.020Z,23.65
2018-03-06T09:25:13.678Z,24.35
2018-03-06T09:27:40.323Z,24.45
2018-03-06T09:30:06.948Z,23.12
2018-03-06T09:32:33.581Z,24.12
2018-03-06T09:35:00.232Z,24.50
2018-03-06T09:37:26.883Z,21.10
2018-03-06T09:39:53.566Z,24.40
2018-03-06T09:42:20.190Z,23.55
2018-03-06T09:44:46.851Z,25.10
2018-03-06T09:47:13.472Z,24.15
2018-03-06T09:49:40.783Z,23.10
2018-03-06T09:52:07.413Z,24.70
2018-03-06T09:54:34.054Z,22.92
2018-03-06T09:57:00.708Z,22.60
2018-03-06T09:59:27.340Z,24.63
2018-03-06T10:01:53.992Z,23.55
2018-03-06T10:04:20.645Z,20.88
2018-03-06T10:06:47.332Z,20.70
2018-03-06T10:09:13.988Z,23.85
2018-03-06T10:11:40.661Z,23.10
2018-03-06T10:14:07.291Z,22.95
2018-03-06T10:16:33.922Z,22.40
2018-03-06T10:19:00.598Z,25.23
2018-03-06T10:21:27.392Z,23.20
2018-03-06T10:23:54.013Z,24.40
2018-03-06T10:26:20.707Z,24.08
2018-03-06T10:28:47.321Z,23.58
2018-03-06T10:31:14.060Z,23.17
2018-03-06T10:33:40.673Z,23.48
2018-03-06T10:36:07.317Z,23.73
2018-03-06T10:38:33.967Z,23.50
2018-03-06T10:41:00.595Z,21.95
2018-03-06T10:43:27.228Z,23.75
2018-03-06T10:45:53.868Z,23.02
2018-03-06T10:48:20.532Z,23.20
2018-03-06T10:50:47.268Z,21.77
2018-03-06T10:53:13.949Z,21.92
2018-03-06T10:55:40.571Z,21.52
2018-03-06T10:58:07.208Z,23.33
2018-03-06T11:00:39.526Z,20.67
2018-03-06T11:03:06.728Z,20.88
2018-03-06T11:05:33.376Z,20.70
2018-03-06T11:08:00.012Z,21.45
2018-03-06T11:10:26.656Z,22.73
2018-03-06T11:12:53.356Z,24.80
2018-03-06T11:15:20.001Z,22.55
2018-03-06T11:17:46.624Z,21.67
2018-03-06T11:20:13.273Z,22.33
2018-03-06T11:22:39.908Z,23.12
2018-03-06T11:25:06.686Z,21.75
2018-03-06T11:27:33.456Z,20.50
2018-03-06T11:30:01.168Z,20.73
2018-03-06T11:32:28.175Z,21.35
2018-03-06T11:34:57.042Z,22.35
2018-03-06T11:37:28.544Z,20.02
2018-03-06T11:39:55.267Z,21.23
2018-03-06T11:42:22.176Z,20.05
2018-03-06T11:44:53.834Z,19.65
2018-03-06T11:47:22.322Z,20.35
2018-03-06T11:50:06.138Z,20.90
